sensor_id;sensor_type;location;lat;lon;timestamp;pressure;altitude;pressure_sealevel;temperature;humidity
71361;BME280;59166;48.908;1.870;2022-09-09T00:03:01;99764.84;;;15.38;86.83
71361;BME280;59166;48.908;1.870;2022-09-09T00:08:04;99756.81;;;15.33;87.06
71361;BME280;59166;48.908;1.870;2022-09-09T00:13:14;99753.88;;;15.30;87.05
71361;BME280;59166;48.908;1.870;2022-09-09T00:18:22;99750.16;;;15.26;87.39
71361;BME280;59166;48.908;1.870;2022-09-09T00:23:28;99749.16;;;15.22;87.60
71361;BME280;59166;48.908;1.870;2022-09-09T00:28:31;99748.47;;;15.16;87.60
71361;BME280;59166;48.908;1.870;2022-09-09T00:33:34;99746.63;;;15.12;87.97
71361;BME280;59166;48.908;1.870;2022-09-09T00:38:39;99754.19;;;15.01;88.92
71361;BME280;59166;48.908;1.870;2022-09-09T00:43:41;99746.53;;;15.03;88.57
71361;BME280;59166;48.908;1.870;2022-09-09T00:48:49;99740.00;;;15.04;88.57
71361;BME280;59166;48.908;1.870;2022-09-09T00:54:13;99728.91;;;15.01;89.00
71361;BME280;59166;48.908;1.870;2022-09-09T00:59:24;99725.19;;;14.97;89.70
71361;BME280;59166;48.908;1.870;2022-09-09T01:04:32;99725.69;;;14.99;89.64
71361;BME280;59166;48.908;1.870;2022-09-09T01:09:44;99725.38;;;15.00;89.18
71361;BME280;59166;48.908;1.870;2022-09-09T01:14:55;99719.31;;;15.03;89.46
71361;BME280;59166;48.908;1.870;2022-09-09T01:20:04;99728.63;;;15.02;89.49
71361;BME280;59166;48.908;1.870;2022-09-09T01:25:26;99718.34;;;14.99;89.91
71361;BME280;59166;48.908;1.870;2022-09-09T01:30:30;99717.00;;;14.97;90.26
71361;BME280;59166;48.908;1.870;2022-09-09T01:35:37;99717.91;;;14.92;90.41
71361;BME280;59166;48.908;1.870;2022-09-09T01:40:40;99716.09;;;14.87;90.98
71361;BME280;59166;48.908;1.870;2022-09-09T01:45:42;99718.53;;;14.89;90.98
71361;BME280;59166;48.908;1.870;2022-09-09T01:56:35;99711.19;;;14.89;91.78
71361;BME280;59166;48.908;1.870;2022-09-09T02:01:49;99710.28;;;14.94;91.63
71361;BME280;59166;48.908;1.870;2022-09-09T02:06:56;99712.09;;;14.99;91.84
71361;BME280;59166;48.908;1.870;2022-09-09T02:12:01;99705.16;;;15.06;91.52
71361;BME280;59166;48.908;1.870;2022-09-09T02:17:09;99711.88;;;15.09;91.95
71361;BME280;59166;48.908;1.870;2022-09-09T02:22:10;99716.09;;;15.15;91.64
71361;BME280;59166;48.908;1.870;2022-09-09T02:27:12;99710.44;;;15.25;91.17
71361;BME280;59166;48.908;1.870;2022-09-09T02:32:17;99696.53;;;15.26;91.21
71361;BME280;59166;48.908;1.870;2022-09-09T02:37:23;99712.13;;;15.34;90.83
71361;BME280;59166;48.908;1.870;2022-09-09T02:42:26;99696.31;;;15.36;90.65
71361;BME280;59166;48.908;1.870;2022-09-09T02:47:35;99701.19;;;15.26;90.75
71361;BME280;59166;48.908;1.870;2022-09-09T02:52:44;99694.72;;;15.22;90.99
71361;BME280;59166;48.908;1.870;2022-09-09T02:57:47;99693.63;;;15.23;90.71
71361;BME280;59166;48.908;1.870;2022-09-09T03:02:50;99692.81;;;15.22;90.74
71361;BME280;59166;48.908;1.870;2022-09-09T03:07:52;99689.47;;;15.25;90.21
71361;BME280;59166;48.908;1.870;2022-09-09T03:12:53;99680.81;;;15.23;90.41
71361;BME280;59166;48.908;1.870;2022-09-09T03:17:55;99680.63;;;15.20;90.34
71361;BME280;59166;48.908;1.870;2022-09-09T03:22:56;99681.84;;;15.14;90.48
71361;BME280;59166;48.908;1.870;2022-09-09T03:27:57;99684.66;;;15.22;89.83
71361;BME280;59166;48.908;1.870;2022-09-09T03:32:59;99687.19;;;15.19;89.88
71361;BME280;59166;48.908;1.870;2022-09-09T03:38:00;99696.34;;;15.23;89.14
71361;BME280;59166;48.908;1.870;2022-09-09T03:43:00;99691.19;;;15.21;89.09
71361;BME280;59166;48.908;1.870;2022-09-09T03:48:02;99687.47;;;15.17;89.75
71361;BME280;59166;48.908;1.870;2022-09-09T03:53:03;99682.56;;;15.19;89.50
71361;BME280;59166;48.908;1.870;2022-09-09T03:58:03;99685.53;;;15.31;88.64
71361;BME280;59166;48.908;1.870;2022-09-09T04:03:05;99683.44;;;15.28;88.54
71361;BME280;59166;48.908;1.870;2022-09-09T04:08:06;99684.13;;;15.20;88.95
71361;BME280;59166;48.908;1.870;2022-09-09T04:13:07;99672.16;;;15.21;88.55
71361;BME280;59166;48.908;1.870;2022-09-09T04:18:09;99679.31;;;15.17;88.55
71361;BME280;59166;48.908;1.870;2022-09-09T04:23:10;99682.03;;;15.17;88.67
71361;BME280;59166;48.908;1.870;2022-09-09T04:28:10;99685.69;;;15.13;89.09
71361;BME280;59166;48.908;1.870;2022-09-09T04:33:14;99680.47;;;15.03;89.78
71361;BME280;59166;48.908;1.870;2022-09-09T04:38:15;99694.06;;;15.03;89.78
71361;BME280;59166;48.908;1.870;2022-09-09T04:43:16;99683.19;;;15.03;89.67
71361;BME280;59166;48.908;1.870;2022-09-09T04:48:19;99684.78;;;15.04;89.58
71361;BME280;59166;48.908;1.870;2022-09-09T04:53:20;99673.28;;;14.93;90.13
71361;BME280;59166;48.908;1.870;2022-09-09T04:58:20;99694.53;;;14.91;90.32
71361;BME280;59166;48.908;1.870;2022-09-09T05:03:23;99684.88;;;14.85;90.30
71361;BME280;59166;48.908;1.870;2022-09-09T05:08:23;99694.53;;;14.91;90.06
71361;BME280;59166;48.908;1.870;2022-09-09T05:13:24;99693.97;;;14.94;90.27
71361;BME280;59166;48.908;1.870;2022-09-09T05:18:26;99700.81;;;15.05;89.29
71361;BME280;59166;48.908;1.870;2022-09-09T05:23:26;99706.44;;;15.09;89.30
71361;BME280;59166;48.908;1.870;2022-09-09T05:28:28;99712.09;;;15.12;89.53
71361;BME280;59166;48.908;1.870;2022-09-09T05:33:30;99700.41;;;15.12;89.39
71361;BME280;59166;48.908;1.870;2022-09-09T05:38:32;99701.41;;;15.16;89.52
71361;BME280;59166;48.908;1.870;2022-09-09T05:43:33;99720.94;;;15.18;89.92
71361;BME280;59166;48.908;1.870;2022-09-09T05:48:37;99725.66;;;15.26;89.54
71361;BME280;59166;48.908;1.870;2022-09-09T05:53:38;99722.13;;;15.25;89.85
71361;BME280;59166;48.908;1.870;2022-09-09T05:58:39;99726.97;;;15.28;89.68
71361;BME280;59166;48.908;1.870;2022-09-09T06:03:43;99711.84;;;15.36;89.21
71361;BME280;59166;48.908;1.870;2022-09-09T06:08:44;99714.75;;;15.39;89.31
71361;BME280;59166;48.908;1.870;2022-09-09T06:13:45;99722.50;;;15.46;89.58
71361;BME280;59166;48.908;1.870;2022-09-09T06:18:47;99727.41;;;15.58;88.64
71361;BME280;59166;48.908;1.870;2022-09-09T06:23:48;99729.50;;;15.61;88.51
71361;BME280;59166;48.908;1.870;2022-09-09T06:28:50;99737.25;;;15.67;88.10
71361;BME280;59166;48.908;1.870;2022-09-09T06:33:53;99729.25;;;15.71;88.01
71361;BME280;59166;48.908;1.870;2022-09-09T06:38:55;99740.72;;;15.81;87.21
71361;BME280;59166;48.908;1.870;2022-09-09T06:43:55;99745.56;;;15.84;86.43
71361;BME280;59166;48.908;1.870;2022-09-09T06:48:58;99736.91;;;15.82;86.73
71361;BME280;59166;48.908;1.870;2022-09-09T06:54:00;99735.84;;;15.92;85.76
71361;BME280;59166;48.908;1.870;2022-09-09T06:59:03;99736.38;;;15.94;85.85
71361;BME280;59166;48.908;1.870;2022-09-09T07:04:05;99747.41;;;16.11;85.49
71361;BME280;59166;48.908;1.870;2022-09-09T07:09:07;99743.16;;;16.05;87.01
71361;BME280;59166;48.908;1.870;2022-09-09T07:14:08;99747.47;;;16.20;85.38
71361;BME280;59166;48.908;1.870;2022-09-09T07:19:11;99755.69;;;16.28;86.09
71361;BME280;59166;48.908;1.870;2022-09-09T07:24:12;99759.28;;;16.37;85.42
71361;BME280;59166;48.908;1.870;2022-09-09T07:29:13;99760.38;;;16.36;86.02
71361;BME280;59166;48.908;1.870;2022-09-09T07:34:15;99766.66;;;16.37;84.90
71361;BME280;59166;48.908;1.870;2022-09-09T07:39:16;99771.03;;;16.47;85.01
71361;BME280;59166;48.908;1.870;2022-09-09T07:44:18;99769.31;;;16.51;83.82
71361;BME280;59166;48.908;1.870;2022-09-09T07:49:20;99775.59;;;16.60;83.76
71361;BME280;59166;48.908;1.870;2022-09-09T07:54:21;99771.50;;;16.71;82.20
71361;BME280;59166;48.908;1.870;2022-09-09T07:59:22;99788.78;;;16.97;81.88
71361;BME280;59166;48.908;1.870;2022-09-09T08:04:25;99778.22;;;17.04;80.91
71361;BME280;59166;48.908;1.870;2022-09-09T08:09:27;99781.66;;;17.18;80.66
71361;BME280;59166;48.908;1.870;2022-09-09T08:14:27;99789.22;;;17.21;80.78
71361;BME280;59166;48.908;1.870;2022-09-09T08:19:29;99799.66;;;17.19;81.89
71361;BME280;59166;48.908;1.870;2022-09-09T08:24:30;99796.44;;;17.17;80.50
71361;BME280;59166;48.908;1.870;2022-09-09T08:29:31;99803.69;;;17.22;80.34
71361;BME280;59166;48.908;1.870;2022-09-09T08:34:33;99817.31;;;17.70;78.67
71361;BME280;59166;48.908;1.870;2022-09-09T08:39:33;99801.72;;;17.96;76.40
71361;BME280;59166;48.908;1.870;2022-09-09T08:44:42;99808.47;;;17.98;75.72
71361;BME280;59166;48.908;1.870;2022-09-09T08:50:01;99818.59;;;18.50;74.99
71361;BME280;59166;48.908;1.870;2022-09-09T08:55:13;99811.84;;;18.64;74.48
71361;BME280;59166;48.908;1.870;2022-09-09T09:00:21;99820.41;;;18.28;75.73
71361;BME280;59166;48.908;1.870;2022-09-09T09:05:28;99822.19;;;18.16;76.49
71361;BME280;59166;48.908;1.870;2022-09-09T09:10:42;99823.91;;;18.03;74.97
71361;BME280;59166;48.908;1.870;2022-09-09T09:15:49;99826.16;;;18.10;76.19
71361;BME280;59166;48.908;1.870;2022-09-09T09:21:00;99832.44;;;18.44;74.71
71361;BME280;59166;48.908;1.870;2022-09-09T09:26:07;99852.22;;;18.59;74.83
71361;BME280;59166;48.908;1.870;2022-09-09T09:31:10;99853.88;;;18.34;73.79
71361;BME280;59166;48.908;1.870;2022-09-09T09:36:13;99863.66;;;18.18;74.11
71361;BME280;59166;48.908;1.870;2022-09-09T09:41:14;99870.88;;;18.14;74.04
71361;BME280;59166;48.908;1.870;2022-09-09T09:46:20;99860.13;;;18.34;74.79
71361;BME280;59166;48.908;1.870;2022-09-09T09:51:22;99876.16;;;18.79;73.28
71361;BME280;59166;48.908;1.870;2022-09-09T09:56:28;99877.81;;;18.71;72.02
71361;BME280;59166;48.908;1.870;2022-09-09T10:01:30;99876.50;;;18.52;72.20
71361;BME280;59166;48.908;1.870;2022-09-09T10:06:34;99886.78;;;18.72;72.39
71361;BME280;59166;48.908;1.870;2022-09-09T10:11:42;99886.81;;;18.63;72.01
71361;BME280;59166;48.908;1.870;2022-09-09T10:16:57;99889.72;;;18.58;72.57
71361;BME280;59166;48.908;1.870;2022-09-09T10:22:15;99886.34;;;18.61;71.60
71361;BME280;59166;48.908;1.870;2022-09-09T10:27:21;99891.16;;;18.56;72.06
71361;BME280;59166;48.908;1.870;2022-09-09T10:32:36;99897.59;;;18.60;71.32
71361;BME280;59166;48.908;1.870;2022-09-09T10:37:58;99897.75;;;18.63;71.67
71361;BME280;59166;48.908;1.870;2022-09-09T10:43:12;99899.03;;;18.83;71.45
71361;BME280;59166;48.908;1.870;2022-09-09T10:48:27;99884.56;;;18.74;70.46
71361;BME280;59166;48.908;1.870;2022-09-09T10:53:37;99888.91;;;18.66;70.89
71361;BME280;59166;48.908;1.870;2022-09-09T10:58:43;99882.13;;;18.72;71.29
71361;BME280;59166;48.908;1.870;2022-09-09T11:03:54;99894.53;;;18.70;72.85
71361;BME280;59166;48.908;1.870;2022-09-09T11:08:57;99894.41;;;18.40;76.25
71361;BME280;59166;48.908;1.870;2022-09-09T11:14:03;99899.38;;;18.47;78.16
71361;BME280;59166;48.908;1.870;2022-09-09T11:19:13;99894.66;;;18.90;77.39
71361;BME280;59166;48.908;1.870;2022-09-09T11:24:21;99890.75;;;19.09;73.34
71361;BME280;59166;48.908;1.870;2022-09-09T11:29:52;99900.53;;;19.94;70.79
71361;BME280;59166;48.908;1.870;2022-09-09T11:35:07;99908.63;;;19.61;70.32
71361;BME280;59166;48.908;1.870;2022-09-09T11:40:20;99920.72;;;18.96;72.63
71361;BME280;59166;48.908;1.870;2022-09-09T11:45:24;99923.81;;;18.69;74.71
71361;BME280;59166;48.908;1.870;2022-09-09T11:50:31;99924.81;;;18.48;75.98
71361;BME280;59166;48.908;1.870;2022-09-09T11:55:35;99938.63;;;18.25;80.45
71361;BME280;59166;48.908;1.870;2022-09-09T12:00:38;99946.88;;;17.86;85.19
71361;BME280;59166;48.908;1.870;2022-09-09T12:05:41;99948.09;;;17.63;88.20
71361;BME280;59166;48.908;1.870;2022-09-09T12:10:54;99935.63;;;17.39;89.00
71361;BME280;59166;48.908;1.870;2022-09-09T12:15:56;99935.53;;;17.22;90.18
71361;BME280;59166;48.908;1.870;2022-09-09T12:21:03;99943.72;;;17.22;90.77
71361;BME280;59166;48.908;1.870;2022-09-09T12:31:35;99956.34;;;16.96;92.34
71361;BME280;59166;48.908;1.870;2022-09-09T12:36:39;99961.97;;;17.00;93.94
71361;BME280;59166;48.908;1.870;2022-09-09T12:41:51;99969.00;;;16.92;93.28
71361;BME280;59166;48.908;1.870;2022-09-09T12:46:52;99964.03;;;16.72;93.81
71361;BME280;59166;48.908;1.870;2022-09-09T12:51:53;99971.41;;;16.93;94.46
71361;BME280;59166;48.908;1.870;2022-09-09T12:56:57;99977.75;;;17.25;93.28
71361;BME280;59166;48.908;1.870;2022-09-09T13:01:58;99978.97;;;17.41;93.03
71361;BME280;59166;48.908;1.870;2022-09-09T13:07:06;99988.81;;;17.81;91.84
71361;BME280;59166;48.908;1.870;2022-09-09T13:12:12;99980.78;;;17.85;86.69
71361;BME280;59166;48.908;1.870;2022-09-09T13:17:20;99981.22;;;17.70;85.27
71361;BME280;59166;48.908;1.870;2022-09-09T13:22:26;99979.88;;;17.59;87.47
71361;BME280;59166;48.908;1.870;2022-09-09T13:27:31;99979.78;;;17.72;88.99
71361;BME280;59166;48.908;1.870;2022-09-09T13:32:32;99982.97;;;17.66;89.12
71361;BME280;59166;48.908;1.870;2022-09-09T13:37:34;99991.16;;;17.66;91.85
71361;BME280;59166;48.908;1.870;2022-09-09T13:42:40;99980.53;;;17.64;90.68
71361;BME280;59166;48.908;1.870;2022-09-09T13:47:42;99983.22;;;17.95;92.51
71361;BME280;59166;48.908;1.870;2022-09-09T13:52:42;99978.00;;;18.24;87.19
71361;BME280;59166;48.908;1.870;2022-09-09T13:57:52;99986.22;;;18.16;88.54
71361;BME280;59166;48.908;1.870;2022-09-09T14:02:53;99982.53;;;18.20;87.82
71361;BME280;59166;48.908;1.870;2022-09-09T14:07:53;99975.44;;;18.19;86.05
71361;BME280;59166;48.908;1.870;2022-09-09T14:12:55;99969.50;;;18.26;85.53
71361;BME280;59166;48.908;1.870;2022-09-09T14:17:56;99968.72;;;19.03;85.94
71361;BME280;59166;48.908;1.870;2022-09-09T14:22:57;99964.69;;;19.17;82.89
71361;BME280;59166;48.908;1.870;2022-09-09T14:27:59;99965.19;;;18.76;82.85
71361;BME280;59166;48.908;1.870;2022-09-09T14:33:00;99964.72;;;18.83;82.35
71361;BME280;59166;48.908;1.870;2022-09-09T14:38:01;99967.44;;;18.91;79.77
71361;BME280;59166;48.908;1.870;2022-09-09T14:43:03;99955.94;;;19.41;78.38
71361;BME280;59166;48.908;1.870;2022-09-09T14:48:04;99948.16;;;19.89;74.94
71361;BME280;59166;48.908;1.870;2022-09-09T14:53:05;99957.25;;;20.40;76.65
71361;BME280;59166;48.908;1.870;2022-09-09T14:58:07;99961.59;;;20.12;75.94
71361;BME280;59166;48.908;1.870;2022-09-09T15:03:08;99955.97;;;19.70;76.23
71361;BME280;59166;48.908;1.870;2022-09-09T15:08:08;99958.81;;;19.44;78.28
71361;BME280;59166;48.908;1.870;2022-09-09T15:13:10;99949.38;;;19.08;79.08
71361;BME280;59166;48.908;1.870;2022-09-09T15:18:11;99969.06;;;18.75;81.62
71361;BME280;59166;48.908;1.870;2022-09-09T15:23:12;99973.88;;;18.53;81.63
71361;BME280;59166;48.908;1.870;2022-09-09T15:28:14;99954.56;;;18.49;82.99
71361;BME280;59166;48.908;1.870;2022-09-09T15:33:15;99965.19;;;18.59;84.45
71361;BME280;59166;48.908;1.870;2022-09-09T15:38:16;99961.00;;;18.62;82.43
71361;BME280;59166;48.908;1.870;2022-09-09T15:43:18;99963.25;;;18.60;82.54
71361;BME280;59166;48.908;1.870;2022-09-09T15:48:18;99960.03;;;18.49;83.72
71361;BME280;59166;48.908;1.870;2022-09-09T15:53:20;99971.47;;;18.42;83.60
71361;BME280;59166;48.908;1.870;2022-09-09T15:58:22;99974.19;;;18.42;84.03
71361;BME280;59166;48.908;1.870;2022-09-09T16:03:23;99971.78;;;18.50;82.41
71361;BME280;59166;48.908;1.870;2022-09-09T16:08:23;99975.03;;;18.60;82.60
71361;BME280;59166;48.908;1.870;2022-09-09T16:13:25;99972.94;;;18.91;82.51
71361;BME280;59166;48.908;1.870;2022-09-09T16:18:26;99978.69;;;19.16;82.03
71361;BME280;59166;48.908;1.870;2022-09-09T16:23:27;99985.25;;;19.87;78.04
71361;BME280;59166;48.908;1.870;2022-09-09T16:28:29;99984.44;;;19.48;78.42
71361;BME280;59166;48.908;1.870;2022-09-09T16:33:29;99983.53;;;19.27;79.25
71361;BME280;59166;48.908;1.870;2022-09-09T16:38:30;99977.88;;;19.07;80.31
71361;BME280;59166;48.908;1.870;2022-09-09T16:43:33;99978.22;;;18.96;79.70
71361;BME280;59166;48.908;1.870;2022-09-09T16:48:34;99970.50;;;18.90;79.26
71361;BME280;59166;48.908;1.870;2022-09-09T16:53:35;99976.78;;;18.65;80.04
71361;BME280;59166;48.908;1.870;2022-09-09T16:58:37;99966.31;;;18.58;81.16
71361;BME280;59166;48.908;1.870;2022-09-09T17:03:37;99983.06;;;18.57;83.51
71361;BME280;59166;48.908;1.870;2022-09-09T17:08:38;99989.66;;;18.47;85.16
71361;BME280;59166;48.908;1.870;2022-09-09T17:13:42;99994.44;;;18.41;87.06
71361;BME280;59166;48.908;1.870;2022-09-09T17:18:43;100007.78;;;18.34;87.60
71361;BME280;59166;48.908;1.870;2022-09-09T17:23:45;100006.16;;;18.25;84.36
71361;BME280;59166;48.908;1.870;2022-09-09T17:28:47;100001.09;;;18.01;84.88
71361;BME280;59166;48.908;1.870;2022-09-09T17:33:49;100020.03;;;17.89;84.65
71361;BME280;59166;48.908;1.870;2022-09-09T17:38:51;100016.13;;;17.81;85.79
71361;BME280;59166;48.908;1.870;2022-09-09T17:43:53;100008.19;;;17.63;87.44
71361;BME280;59166;48.908;1.870;2022-09-09T17:48:56;100017.09;;;17.46;87.40
71361;BME280;59166;48.908;1.870;2022-09-09T17:53:58;100017.00;;;17.37;85.08
71361;BME280;59166;48.908;1.870;2022-09-09T17:59:03;100015.34;;;17.28;86.12
71361;BME280;59166;48.908;1.870;2022-09-09T18:04:05;100018.53;;;17.21;84.86
71361;BME280;59166;48.908;1.870;2022-09-09T18:09:08;100027.38;;;17.05;86.05
71361;BME280;59166;48.908;1.870;2022-09-09T18:14:12;100030.72;;;17.02;86.43
71361;BME280;59166;48.908;1.870;2022-09-09T18:19:15;100034.50;;;16.92;87.06
71361;BME280;59166;48.908;1.870;2022-09-09T18:24:17;100040.88;;;16.87;87.94
71361;BME280;59166;48.908;1.870;2022-09-09T18:29:21;100036.13;;;16.79;88.49
71361;BME280;59166;48.908;1.870;2022-09-09T18:34:23;100045.47;;;16.78;88.93
71361;BME280;59166;48.908;1.870;2022-09-09T18:39:25;100057.47;;;16.77;89.18
71361;BME280;59166;48.908;1.870;2022-09-09T18:44:29;100065.75;;;16.72;89.83
71361;BME280;59166;48.908;1.870;2022-09-09T18:49:30;100064.44;;;16.70;91.13
71361;BME280;59166;48.908;1.870;2022-09-09T18:54:31;100070.44;;;16.72;91.55
71361;BME280;59166;48.908;1.870;2022-09-09T18:59:33;100081.34;;;16.72;92.21
71361;BME280;59166;48.908;1.870;2022-09-09T19:04:34;100088.31;;;16.64;92.62
71361;BME280;59166;48.908;1.870;2022-09-09T19:09:34;100097.91;;;16.62;92.85
71361;BME280;59166;48.908;1.870;2022-09-09T19:14:36;100103.38;;;16.62;92.76
71361;BME280;59166;48.908;1.870;2022-09-09T19:19:37;100110.75;;;16.61;93.13
71361;BME280;59166;48.908;1.870;2022-09-09T19:24:37;100107.81;;;16.58;93.12
71361;BME280;59166;48.908;1.870;2022-09-09T19:29:40;100107.72;;;16.49;93.31
71361;BME280;59166;48.908;1.870;2022-09-09T19:34:40;100110.75;;;16.48;93.43
71361;BME280;59166;48.908;1.870;2022-09-09T19:39:41;100122.88;;;16.41;93.72
71361;BME280;59166;48.908;1.870;2022-09-09T19:44:43;100128.13;;;16.38;93.59
71361;BME280;59166;48.908;1.870;2022-09-09T19:49:44;100135.28;;;16.34;93.61
71361;BME280;59166;48.908;1.870;2022-09-09T19:54:49;100143.06;;;16.27;94.15
71361;BME280;59166;48.908;1.870;2022-09-09T19:59:51;100135.50;;;16.24;94.50
71361;BME280;59166;48.908;1.870;2022-09-09T20:04:52;100152.66;;;16.24;94.52
71361;BME280;59166;48.908;1.870;2022-09-09T20:09:53;100153.44;;;16.25;94.69
71361;BME280;59166;48.908;1.870;2022-09-09T20:14:55;100158.88;;;16.25;94.71
71361;BME280;59166;48.908;1.870;2022-09-09T20:19:55;100153.25;;;16.21;94.50
71361;BME280;59166;48.908;1.870;2022-09-09T20:24:56;100156.88;;;16.17;94.61
71361;BME280;59166;48.908;1.870;2022-09-09T20:29:58;100151.59;;;16.07;94.70
71361;BME280;59166;48.908;1.870;2022-09-09T20:34:59;100153.00;;;16.04;94.68
71361;BME280;59166;48.908;1.870;2022-09-09T20:40:00;100160.22;;;15.95;95.65
71361;BME280;59166;48.908;1.870;2022-09-09T20:45:02;100157.81;;;15.93;94.91
71361;BME280;59166;48.908;1.870;2022-09-09T20:50:04;100161.22;;;15.85;94.00
71361;BME280;59166;48.908;1.870;2022-09-09T20:55:05;100163.94;;;15.85;92.38
71361;BME280;59166;48.908;1.870;2022-09-09T21:00:09;100166.75;;;15.80;91.72
71361;BME280;59166;48.908;1.870;2022-09-09T21:05:09;100171.19;;;15.76;91.12
71361;BME280;59166;48.908;1.870;2022-09-09T21:10:10;100175.09;;;15.70;90.60
71361;BME280;59166;48.908;1.870;2022-09-09T21:15:12;100165.38;;;15.64;90.38
71361;BME280;59166;48.908;1.870;2022-09-09T21:20:13;100169.59;;;15.57;91.49
71361;BME280;59166;48.908;1.870;2022-09-09T21:25:14;100177.75;;;15.57;92.66
71361;BME280;59166;48.908;1.870;2022-09-09T21:30:16;100170.97;;;15.54;93.27
71361;BME280;59166;48.908;1.870;2022-09-09T21:35:17;100172.09;;;15.53;93.08
71361;BME280;59166;48.908;1.870;2022-09-09T21:40:20;100173.78;;;15.49;93.16
71361;BME280;59166;48.908;1.870;2022-09-09T21:45:22;100187.78;;;15.42;92.35
71361;BME280;59166;48.908;1.870;2022-09-09T21:50:23;100177.47;;;15.39;92.42
71361;BME280;59166;48.908;1.870;2022-09-09T21:55:24;100183.22;;;15.38;92.46
71361;BME280;59166;48.908;1.870;2022-09-09T22:06:05;100176.00;;;15.28;92.25
71361;BME280;59166;48.908;1.870;2022-09-09T22:11:08;100187.16;;;15.27;92.28
71361;BME280;59166;48.908;1.870;2022-09-09T22:16:11;100185.94;;;15.19;91.94
71361;BME280;59166;48.908;1.870;2022-09-09T22:21:15;100196.81;;;15.19;91.63
71361;BME280;59166;48.908;1.870;2022-09-09T22:26:15;100196.00;;;15.19;91.94
71361;BME280;59166;48.908;1.870;2022-09-09T22:31:16;100208.28;;;15.16;91.78
71361;BME280;59166;48.908;1.870;2022-09-09T22:36:19;100203.22;;;15.10;91.88
71361;BME280;59166;48.908;1.870;2022-09-09T22:41:21;100206.22;;;15.08;91.92
71361;BME280;59166;48.908;1.870;2022-09-09T22:46:21;100205.19;;;15.04;92.80
71361;BME280;59166;48.908;1.870;2022-09-09T22:51:23;100211.19;;;15.01;92.64
71361;BME280;59166;48.908;1.870;2022-09-09T22:56:24;100203.13;;;14.96;93.06
71361;BME280;59166;48.908;1.870;2022-09-09T23:01:26;100209.94;;;14.93;93.02
71361;BME280;59166;48.908;1.870;2022-09-09T23:06:28;100216.50;;;14.87;93.25
71361;BME280;59166;48.908;1.870;2022-09-09T23:11:30;100212.16;;;14.86;93.15
71361;BME280;59166;48.908;1.870;2022-09-09T23:16:33;100203.22;;;14.86;92.75
71361;BME280;59166;48.908;1.870;2022-09-09T23:21:37;100204.66;;;14.78;92.94
71361;BME280;59166;48.908;1.870;2022-09-09T23:26:38;100215.59;;;14.73;92.93
71361;BME280;59166;48.908;1.870;2022-09-09T23:31:41;100218.59;;;14.72;93.03
71361;BME280;59166;48.908;1.870;2022-09-09T23:36:43;100223.00;;;14.68;93.09
71361;BME280;59166;48.908;1.870;2022-09-09T23:41:44;100221.13;;;14.63;92.99
71361;BME280;59166;48.908;1.870;2022-09-09T23:46:45;100217.69;;;14.58;92.88
71361;BME280;59166;48.908;1.870;2022-09-09T23:51:47;100228.09;;;14.51;93.37
71361;BME280;59166;48.908;1.870;2022-09-09T23:56:48;100221.91;;;14.45;93.89
